Time;durP1;ratioP1;P1;durP2;ratioP2;P2;SDS_P1;SDS_P2;PMS_P1;PMS_P2;Temp;Humidity;BMP_temperature;BMP_pressure;BME280_temperature;BME280_humidity;BME280_pressure;Samples;Min_cycle;Max_cycle;Signal;HPM_P1;HPM_P2
2023/11/01 00:00:25;;;;;;;15.00;11.67;;;;;;;;;;5071801;28;20211;-76
2023/11/01 00:02:52;;;;;;;14.00;11.87;;;;;;;;;;5071346;28;20227;-76
2023/11/01 00:05:20;;;;;;;17.23;11.97;;;;;;;;;;5070953;28;20225;-77
2023/11/01 00:07:46;;;;;;;15.77;11.43;;;;;;;;;;5070695;28;20222;-76
2023/11/01 00:10:13;;;;;;;19.13;12.93;;;;;;;;;;5071318;28;20587;-76
2023/11/01 00:12:40;;;;;;;15.53;11.73;;;;;;;;;;5070748;28;20199;-76
2023/11/01 00:15:08;;;;;;;15.57;12.50;;;;;;;;;;5071476;28;20207;-76
2023/11/01 00:17:35;;;;;;;18.33;13.03;;;;;;;;;;5070839;28;20684;-76
2023/11/01 00:20:02;;;;;;;16.97;12.07;;;;;;;;;;5071440;28;20207;-76
2023/11/01 00:22:30;;;;;;;16.67;12.13;;;;;;;;;;5070943;28;20193;-76
2023/11/01 00:24:57;;;;;;;19.53;13.17;;;;;;;;;;5070812;28;20627;-76
2023/11/01 00:27:24;;;;;;;19.80;12.40;;;;;;;;;;5070503;28;20698;-76
2023/11/01 00:29:51;;;;;;;17.10;12.90;;;;;;;;;;5071191;28;20204;-76
2023/11/01 00:32:17;;;;;;;16.47;12.33;;;;;;;;;;5070655;28;20222;-76
2023/11/01 00:34:44;;;;;;;19.37;13.73;;;;;;;;;;5070085;28;20208;-78
2023/11/01 00:37:12;;;;;;;15.63;12.73;;;;;;;;;;5063987;28;20212;-76
2023/11/01 00:39:40;;;;;;;20.03;13.10;;;;;;;;;;5065323;28;20243;-76
2023/11/01 00:42:07;;;;;;;21.23;13.17;;;;;;;;;;5070189;28;20206;-76
2023/11/01 00:44:34;;;;;;;17.57;11.40;;;;;;;;;;5070627;28;20238;-76
2023/11/01 00:47:01;;;;;;;17.83;11.93;;;;;;;;;;5071033;28;20199;-77
2023/11/01 00:49:28;;;;;;;19.53;12.00;;;;;;;;;;5070429;28;20200;-76
2023/11/01 00:51:55;;;;;;;15.17;12.53;;;;;;;;;;5070855;28;20226;-76
2023/11/01 00:54:25;;;;;;;18.87;12.13;;;;;;;;;;5070175;28;20705;-76
2023/11/01 00:56:53;;;;;;;14.73;13.13;;;;;;;;;;5070231;28;20598;-76
2023/11/01 00:59:19;;;;;;;21.00;12.63;;;;;;;;;;5070234;28;20299;-76
2023/11/01 01:01:46;;;;;;;16.77;11.70;;;;;;;;;;5070909;28;20213;-77
2023/11/01 01:04:13;;;;;;;16.37;12.63;;;;;;;;;;5070040;28;20209;-76
2023/11/01 01:06:40;;;;;;;17.83;11.63;;;;;;;;;;5070599;28;20208;-76
2023/11/01 01:09:06;;;;;;;15.77;11.60;;;;;;;;;;5070725;28;20208;-76
2023/11/01 01:11:34;;;;;;;15.27;10.13;;;;;;;;;;5070081;28;20216;-76
2023/11/01 01:14:02;;;;;;;18.20;12.00;;;;;;;;;;5070155;28;20207;-76
2023/11/01 01:16:29;;;;;;;17.67;11.67;;;;;;;;;;5070475;28;20204;-76
2023/11/01 01:18:56;;;;;;;12.77;11.47;;;;;;;;;;5070534;28;20193;-76
2023/11/01 01:21:23;;;;;;;19.07;12.63;;;;;;;;;;5069978;28;20284;-76
2023/11/01 01:23:49;;;;;;;14.60;10.83;;;;;;;;;;5070511;28;20205;-76
2023/11/01 01:26:16;;;;;;;17.47;11.43;;;;;;;;;;5070411;28;20225;-76
2023/11/01 01:28:43;;;;;;;14.37;11.27;;;;;;;;;;5070338;28;20213;-76
2023/11/01 01:31:12;;;;;;;13.43;10.37;;;;;;;;;;5070085;28;20201;-77
2023/11/01 01:33:39;;;;;;;12.47;10.73;;;;;;;;;;5070493;28;20340;-76
2023/11/01 01:36:06;;;;;;;18.13;12.23;;;;;;;;;;5070265;28;20197;-76
2023/11/01 01:38:33;;;;;;;14.67;11.13;;;;;;;;;;5069905;28;20259;-76
2023/11/01 01:41:01;;;;;;;17.43;11.57;;;;;;;;;;5070356;28;20236;-76
2023/11/01 01:43:28;;;;;;;15.30;10.17;;;;;;;;;;5069917;28;20253;-76
2023/11/01 01:46:01;;;;;;;13.47;11.23;;;;;;;;;;5073693;28;20230;-76
2023/11/01 01:48:29;;;;;;;15.10;11.10;;;;;;;;;;5073659;28;20205;-76
2023/11/01 01:50:56;;;;;;;14.60;11.13;;;;;;;;;;5073428;28;20233;-77
2023/11/01 01:53:24;;;;;;;15.10;11.17;;;;;;;;;;5074220;28;20232;-76
2023/11/01 01:55:51;;;;;;;17.73;12.77;;;;;;;;;;5072963;28;20597;-76
2023/11/01 01:58:18;;;;;;;16.87;13.47;;;;;;;;;;5060778;28;20208;-76
2023/11/01 02:00:45;;;;;;;21.93;14.43;;;;;;;;;;5060598;28;20691;-76
2023/11/01 02:03:12;;;;;;;16.70;13.20;;;;;;;;;;5063277;28;20210;-76
2023/11/01 02:05:41;;;;;;;19.10;14.17;;;;;;;;;;5056223;28;20624;-77
2023/11/01 02:08:08;;;;;;;15.33;11.60;;;;;;;;;;5054689;28;20276;-76
2023/11/01 02:10:35;;;;;;;15.90;10.93;;;;;;;;;;5055284;28;20201;-76
2023/11/01 02:13:10;;;;;;;15.53;11.63;;;;;;;;;;5054261;28;20194;-76
2023/11/01 02:15:37;;;;;;;18.63;11.80;;;;;;;;;;5054337;28;20747;-76
2023/11/01 02:18:04;;;;;;;18.63;12.33;;;;;;;;;;5053780;28;20208;-76
2023/11/01 02:20:33;;;;;;;16.63;11.47;;;;;;;;;;5057040;28;20197;-76
2023/11/01 02:23:02;;;;;;;17.37;11.57;;;;;;;;;;5072990;28;20197;-76
2023/11/01 02:25:30;;;;;;;14.60;10.17;;;;;;;;;;5058683;28;20282;-76
2023/11/01 02:27:58;;;;;;;17.63;10.97;;;;;;;;;;5072184;28;20205;-76
2023/11/01 02:30:24;;;;;;;15.70;11.37;;;;;;;;;;5072816;28;20289;-76
2023/11/01 02:32:52;;;;;;;18.30;11.53;;;;;;;;;;5072922;28;20201;-77
2023/11/01 02:35:19;;;;;;;15.97;11.43;;;;;;;;;;5073468;28;20209;-76
2023/11/01 02:37:47;;;;;;;14.93;12.47;;;;;;;;;;5072889;28;20205;-75
2023/11/01 02:40:15;;;;;;;16.57;11.03;;;;;;;;;;5071858;28;20205;-76
2023/11/01 02:42:43;;;;;;;15.37;12.67;;;;;;;;;;5067656;28;20212;-77
2023/11/01 02:45:10;;;;;;;17.67;12.23;;;;;;;;;;5072566;28;20776;-77
2023/11/01 02:47:37;;;;;;;12.70;10.50;;;;;;;;;;5071879;28;20205;-77
2023/11/01 02:50:05;;;;;;;19.83;11.67;;;;;;;;;;5072725;28;20294;-76
2023/11/01 02:52:32;;;;;;;15.43;11.00;;;;;;;;;;5072348;28;20251;-77
2023/11/01 02:54:59;;;;;;;15.77;11.07;;;;;;;;;;5072768;28;20212;-77
2023/11/01 02:57:26;;;;;;;15.97;11.23;;;;;;;;;;5071942;28;20593;-77
2023/11/01 02:59:54;;;;;;;16.40;12.97;;;;;;;;;;5072449;28;20205;-77
2023/11/01 03:02:20;;;;;;;16.93;12.50;;;;;;;;;;5059081;28;20708;-77
2023/11/01 03:04:47;;;;;;;14.33;11.53;;;;;;;;;;5072373;28;20201;-77
2023/11/01 03:07:14;;;;;;;16.23;11.53;;;;;;;;;;5059646;28;20213;-77
2023/11/01 03:09:41;;;;;;;17.93;12.60;;;;;;;;;;5059013;28;20202;-77
2023/11/01 03:12:08;;;;;;;14.13;11.87;;;;;;;;;;5072306;28;20692;-78
2023/11/01 03:14:37;;;;;;;12.87;11.53;;;;;;;;;;5071849;28;20239;-78
2023/11/01 03:17:05;;;;;;;16.23;12.50;;;;;;;;;;5072300;28;20223;-77
2023/11/01 03:19:33;;;;;;;15.30;12.43;;;;;;;;;;5071969;28;20197;-77
2023/11/01 03:21:59;;;;;;;14.90;11.10;;;;;;;;;;5071556;28;20292;-77
2023/11/01 03:24:26;;;;;;;16.87;11.27;;;;;;;;;;5071643;28;20198;-78
2023/11/01 03:26:53;;;;;;;15.60;11.33;;;;;;;;;;5071715;28;20233;-78
2023/11/01 03:29:20;;;;;;;13.17;9.33;;;;;;;;;;5071927;28;20290;-78
2023/11/01 03:31:48;;;;;;;12.63;8.80;;;;;;;;;;5071914;28;20679;-78
2023/11/01 03:34:16;;;;;;;13.83;9.17;;;;;;;;;;5072217;28;20250;-78
2023/11/01 03:36:43;;;;;;;13.63;9.30;;;;;;;;;;5071445;28;20694;-78
2023/11/01 03:39:11;;;;;;;16.90;9.33;;;;;;;;;;5071805;28;20650;-78
2023/11/01 03:41:40;;;;;;;10.57;8.90;;;;;;;;;;5072067;28;20323;-77
2023/11/01 03:44:07;;;;;;;13.70;9.37;;;;;;;;;;5071664;28;20202;-77
2023/11/01 03:46:33;;;;;;;12.87;9.53;;;;;;;;;;5071865;28;20630;-78
2023/11/01 03:49:01;;;;;;;10.77;9.03;;;;;;;;;;5071723;28;20604;-77
2023/11/01 03:51:29;;;;;;;10.47;8.00;;;;;;;;;;5071836;28;20713;-78
2023/11/01 03:53:56;;;;;;;10.03;8.77;;;;;;;;;;5071832;28;20220;-78
2023/11/01 03:56:23;;;;;;;13.03;8.30;;;;;;;;;;5070963;28;20205;-78
2023/11/01 03:58:50;;;;;;;13.07;9.47;;;;;;;;;;5072087;28;20205;-77
2023/11/01 04:01:17;;;;;;;13.53;10.40;;;;;;;;;;5071082;28;20193;-77
2023/11/01 04:03:45;;;;;;;15.23;9.80;;;;;;;;;;5071945;28;20244;-77
2023/11/01 04:06:13;;;;;;;14.97;10.03;;;;;;;;;;5071328;28;20233;-77
2023/11/01 04:08:41;;;;;;;10.87;8.43;;;;;;;;;;5070070;28;20204;-77
2023/11/01 04:11:08;;;;;;;12.37;8.87;;;;;;;;;;5071703;28;20208;-77
2023/11/01 04:13:35;;;;;;;11.80;9.43;;;;;;;;;;5071068;28;20208;-78
2023/11/01 04:16:02;;;;;;;13.13;9.40;;;;;;;;;;5070727;28;20202;-78
2023/11/01 04:18:29;;;;;;;14.33;9.40;;;;;;;;;;5070819;28;20232;-78
2023/11/01 04:20:57;;;;;;;10.57;8.13;;;;;;;;;;5071296;28;20194;-78
2023/11/01 04:23:25;;;;;;;12.53;9.33;;;;;;;;;;5071127;28;20201;-77
2023/11/01 04:25:53;;;;;;;10.67;8.77;;;;;;;;;;5070973;28;20757;-77
2023/11/01 04:28:20;;;;;;;14.73;8.83;;;;;;;;;;5070852;28;20745;-77
2023/11/01 04:30:47;;;;;;;9.87;7.57;;;;;;;;;;5071019;28;20204;-77
2023/11/01 04:33:15;;;;;;;11.90;8.00;;;;;;;;;;5070363;28;20232;-78
2023/11/01 04:35:42;;;;;;;10.73;7.87;;;;;;;;;;5070825;28;20201;-78
2023/11/01 04:38:11;;;;;;;18.20;12.57;;;;;;;;;;5070699;28;20208;-77
2023/11/01 04:40:38;;;;;;;10.20;7.33;;;;;;;;;;5070900;28;20201;-78
2023/11/01 04:43:06;;;;;;;10.03;8.27;;;;;;;;;;5070442;28;20223;-78
2023/11/01 04:45:34;;;;;;;10.30;6.30;;;;;;;;;;5070826;28;20228;-78
2023/11/01 04:48:01;;;;;;;13.30;6.97;;;;;;;;;;5070793;28;20208;-78
2023/11/01 04:50:28;;;;;;;10.17;7.23;;;;;;;;;;5066059;28;20236;-79
2023/11/01 04:52:54;;;;;;;16.03;7.63;;;;;;;;;;5067202;28;20213;-78
2023/11/01 04:55:22;;;;;;;8.23;6.30;;;;;;;;;;5062885;28;20193;-78
2023/11/01 04:57:50;;;;;;;9.43;5.83;;;;;;;;;;5061897;28;20212;-77
2023/11/01 05:00:19;;;;;;;6.13;5.40;;;;;;;;;;5064314;28;20589;-78
2023/11/01 05:02:47;;;;;;;5.77;4.83;;;;;;;;;;5067356;28;20463;-78
2023/11/01 05:05:14;;;;;;;7.87;5.83;;;;;;;;;;5064871;28;20201;-77
2023/11/01 05:07:41;;;;;;;7.37;5.33;;;;;;;;;;5070594;28;20243;-77
2023/11/01 05:10:08;;;;;;;5.93;4.40;;;;;;;;;;5070304;28;20706;-77
2023/11/01 05:12:35;;;;;;;5.80;4.80;;;;;;;;;;5070742;28;20211;-77
2023/11/01 05:15:02;;;;;;;16.07;11.73;;;;;;;;;;5070377;28;20193;-77
2023/11/01 05:17:31;;;;;;;20.90;12.70;;;;;;;;;;5066598;28;20209;-78
2023/11/01 05:19:58;;;;;;;13.63;11.10;;;;;;;;;;5072609;28;20204;-78
2023/11/01 05:22:25;;;;;;;15.00;9.80;;;;;;;;;;5074074;28;20206;-78
2023/11/01 05:24:51;;;;;;;10.37;9.07;;;;;;;;;;5074813;28;20690;-77
2023/11/01 05:27:19;;;;;;;12.37;7.20;;;;;;;;;;5074006;28;20232;-77
2023/11/01 05:29:46;;;;;;;8.77;6.70;;;;;;;;;;5074040;28;20292;-78
2023/11/01 05:32:13;;;;;;;7.43;6.27;;;;;;;;;;5072480;28;20201;-78
2023/11/01 05:34:42;;;;;;;10.67;5.60;;;;;;;;;;5073710;28;20242;-78
2023/11/01 05:37:11;;;;;;;6.93;5.30;;;;;;;;;;5073966;28;20216;-78
2023/11/01 05:39:37;;;;;;;11.33;5.80;;;;;;;;;;5074297;28;20248;-78
2023/11/01 05:42:05;;;;;;;13.03;5.30;;;;;;;;;;5073647;28;20580;-78
2023/11/01 05:44:32;;;;;;;9.07;5.10;;;;;;;;;;5073741;28;20213;-78
2023/11/01 05:46:59;;;;;;;7.23;4.80;;;;;;;;;;5074034;28;20231;-78
2023/11/01 05:49:26;;;;;;;8.07;5.53;;;;;;;;;;5073245;28;20607;-78
2023/11/01 05:51:55;;;;;;;8.93;6.50;;;;;;;;;;5073816;28;20584;-78
2023/11/01 05:54:24;;;;;;;11.03;5.47;;;;;;;;;;5073279;28;20589;-78
2023/11/01 05:56:51;;;;;;;10.23;7.10;;;;;;;;;;5074052;28;20560;-78
2023/11/01 05:59:18;;;;;;;11.37;6.17;;;;;;;;;;5073557;28;20205;-78
2023/11/01 06:01:45;;;;;;;7.17;6.40;;;;;;;;;;5074301;28;20322;-78
2023/11/01 06:04:11;;;;;;;9.77;6.37;;;;;;;;;;5073868;28;20724;-77
2023/11/01 06:06:38;;;;;;;13.00;5.90;;;;;;;;;;5073545;28;20231;-78
2023/11/01 06:09:07;;;;;;;8.10;5.80;;;;;;;;;;5073771;28;20213;-78
2023/11/01 06:11:34;;;;;;;9.33;6.47;;;;;;;;;;5073467;28;20201;-78
2023/11/01 06:14:01;;;;;;;7.67;5.70;;;;;;;;;;5073603;28;21665;-78
2023/11/01 06:16:28;;;;;;;5.07;4.43;;;;;;;;;;5073661;28;20219;-78
2023/11/01 06:18:56;;;;;;;10.37;4.87;;;;;;;;;;5073512;28;20202;-78
2023/11/01 06:21:23;;;;;;;6.97;5.37;;;;;;;;;;5073508;28;20204;-78
2023/11/01 06:23:50;;;;;;;6.20;5.27;;;;;;;;;;5073247;28;20210;-78
2023/11/01 06:26:19;;;;;;;12.97;7.03;;;;;;;;;;5073514;28;20648;-78
2023/11/01 06:28:45;;;;;;;16.43;8.47;;;;;;;;;;5073267;28;20598;-78
2023/11/01 06:31:14;;;;;;;15.37;9.00;;;;;;;;;;5072385;28;20210;-78
2023/11/01 06:33:40;;;;;;;26.37;10.50;;;;;;;;;;5073759;28;20290;-78
2023/11/01 06:36:09;;;;;;;18.23;12.10;;;;;;;;;;5073045;28;20205;-78
2023/11/01 06:38:35;;;;;;;13.00;8.20;;;;;;;;;;5073085;28;20218;-78
2023/11/01 06:41:04;;;;;;;13.97;8.47;;;;;;;;;;5073328;28;20216;-78
2023/11/01 06:43:32;;;;;;;15.30;8.07;;;;;;;;;;5073162;28;20731;-78
2023/11/01 06:45:59;;;;;;;19.37;9.20;;;;;;;;;;5073275;28;20213;-78
2023/11/01 06:48:26;;;;;;;14.17;9.17;;;;;;;;;;5072538;28;20222;-78
2023/11/01 06:50:53;;;;;;;15.07;10.77;;;;;;;;;;5073422;28;20230;-78
2023/11/01 06:53:20;;;;;;;8.77;7.10;;;;;;;;;;5073006;28;20204;-78
2023/11/01 06:55:46;;;;;;;13.37;6.97;;;;;;;;;;5073021;28;20219;-78
2023/11/01 06:58:13;;;;;;;9.13;5.87;;;;;;;;;;5059730;28;20208;-77
2023/11/01 07:00:42;;;;;;;6.00;5.23;;;;;;;;;;5072945;28;20204;-79
2023/11/01 07:03:09;;;;;;;7.93;4.67;;;;;;;;;;5072960;28;20212;-78
2023/11/01 07:05:36;;;;;;;9.07;4.67;;;;;;;;;;5072245;28;20219;-78
2023/11/01 07:08:03;;;;;;;4.93;3.97;;;;;;;;;;5059832;28;20694;-78
2023/11/01 07:10:30;;;;;;;21.00;7.53;;;;;;;;;;5072724;28;20215;-78
2023/11/01 07:12:57;;;;;;;17.93;6.90;;;;;;;;;;5072551;28;20278;-78
2023/11/01 07:15:24;;;;;;;14.13;6.60;;;;;;;;;;5072488;28;20248;-78
2023/11/01 07:17:52;;;;;;;16.53;6.20;;;;;;;;;;5072321;28;20216;-78
2023/11/01 07:20:19;;;;;;;11.13;6.27;;;;;;;;;;5072398;28;20564;-78
2023/11/01 07:22:46;;;;;;;10.30;6.13;;;;;;;;;;5072686;28;20286;-78
2023/11/01 07:25:13;;;;;;;5.83;5.20;;;;;;;;;;5072011;28;20235;-78
2023/11/01 07:27:39;;;;;;;8.43;4.27;;;;;;;;;;5072157;28;20234;-78
2023/11/01 07:30:07;;;;;;;7.83;5.13;;;;;;;;;;5072064;28;20203;-78
2023/11/01 07:32:36;;;;;;;6.27;4.93;;;;;;;;;;5071987;28;20603;-78
2023/11/01 07:35:05;;;;;;;9.27;5.03;;;;;;;;;;5072236;28;20208;-77
2023/11/01 07:37:32;;;;;;;7.77;4.47;;;;;;;;;;5072076;28;20211;-78
2023/11/01 07:40:00;;;;;;;14.10;5.43;;;;;;;;;;5059066;28;20280;-78
2023/11/01 07:42:26;;;;;;;9.10;4.50;;;;;;;;;;5071727;28;20216;-78
2023/11/01 07:44:53;;;;;;;11.77;4.83;;;;;;;;;;5071706;28;20635;-78
2023/11/01 07:47:20;;;;;;;12.07;5.17;;;;;;;;;;5071739;28;20244;-78
2023/11/01 07:49:49;;;;;;;9.67;4.50;;;;;;;;;;5072082;28;20232;-78
2023/11/01 07:52:17;;;;;;;7.83;4.27;;;;;;;;;;5071857;28;20291;-78
2023/11/01 07:54:44;;;;;;;9.67;4.30;;;;;;;;;;5071343;28;20201;-78
2023/11/01 07:57:11;;;;;;;9.33;4.70;;;;;;;;;;5071864;28;20224;-78
2023/11/01 07:59:38;;;;;;;8.40;5.37;;;;;;;;;;5071487;28;20209;-78
2023/11/01 08:02:06;;;;;;;7.17;6.03;;;;;;;;;;5071744;28;20205;-78
2023/11/01 08:04:33;;;;;;;11.87;6.10;;;;;;;;;;5071645;28;20213;-78
2023/11/01 08:06:59;;;;;;;8.40;5.77;;;;;;;;;;5071262;28;20221;-78
2023/11/01 08:09:28;;;;;;;9.90;5.23;;;;;;;;;;5071324;28;20209;-78
2023/11/01 08:11:55;;;;;;;10.53;6.00;;;;;;;;;;5071021;28;20205;-79
2023/11/01 08:14:21;;;;;;;10.70;5.70;;;;;;;;;;5058759;28;20219;-78
2023/11/01 08:16:48;;;;;;;7.23;5.83;;;;;;;;;;5071027;28;20609;-78
2023/11/01 08:19:15;;;;;;;11.80;6.63;;;;;;;;;;5071496;28;20205;-78
2023/11/01 08:21:42;;;;;;;8.87;5.77;;;;;;;;;;5071198;28;20228;-79
2023/11/01 08:24:09;;;;;;;6.57;5.40;;;;;;;;;;5070853;28;20204;-79
2023/11/01 08:26:38;;;;;;;6.93;5.30;;;;;;;;;;5070915;28;20683;-80
2023/11/01 08:29:04;;;;;;;8.73;5.17;;;;;;;;;;5071461;28;20259;-79
2023/11/01 08:31:31;;;;;;;8.67;5.10;;;;;;;;;;5071124;28;20208;-79
2023/11/01 08:33:58;;;;;;;8.07;5.23;;;;;;;;;;5071161;28;20211;-79
2023/11/01 08:36:25;;;;;;;7.90;5.30;;;;;;;;;;5070594;28;20201;-79
2023/11/01 08:38:52;;;;;;;6.70;4.00;;;;;;;;;;5071283;28;20287;-79
2023/11/01 08:41:19;;;;;;;5.33;4.27;;;;;;;;;;5071197;28;20208;-79
2023/11/01 08:43:47;;;;;;;6.37;4.33;;;;;;;;;;5070940;28;20254;-79
2023/11/01 08:46:14;;;;;;;5.53;2.70;;;;;;;;;;5070789;28;20217;-78
2023/11/01 08:48:41;;;;;;;2.90;2.20;;;;;;;;;;5070870;28;20224;-79
2023/11/01 08:51:08;;;;;;;4.00;3.10;;;;;;;;;;5070697;28;20315;-79
2023/11/01 08:53:37;;;;;;;4.83;2.30;;;;;;;;;;5070507;28;20229;-79
2023/11/01 08:56:05;;;;;;;9.10;2.63;;;;;;;;;;5070405;28;20675;-79
2023/11/01 08:58:31;;;;;;;3.90;2.27;;;;;;;;;;5070601;28;20277;-79
2023/11/01 09:01:00;;;;;;;4.73;2.27;;;;;;;;;;5070754;28;20208;-79
2023/11/01 09:03:27;;;;;;;3.33;1.80;;;;;;;;;;5070175;28;20233;-79
2023/11/01 09:05:55;;;;;;;8.43;2.60;;;;;;;;;;5070713;28;20201;-79
2023/11/01 09:08:21;;;;;;;2.30;2.10;;;;;;;;;;5070500;28;20282;-79
2023/11/01 09:10:48;;;;;;;4.03;2.40;;;;;;;;;;5070710;28;20197;-79
2023/11/01 09:13:15;;;;;;;5.13;2.30;;;;;;;;;;5059656;28;20593;-79
2023/11/01 09:15:42;;;;;;;4.53;2.10;;;;;;;;;;5067885;28;20726;-79
2023/11/01 09:18:10;;;;;;;4.47;2.97;;;;;;;;;;5070416;28;20211;-81
2023/11/01 09:20:37;;;;;;;5.07;2.80;;;;;;;;;;5070457;28;20597;-80
2023/11/01 09:23:04;;;;;;;6.40;2.70;;;;;;;;;;5070554;28;20254;-79
2023/11/01 09:25:32;;;;;;;4.07;2.30;;;;;;;;;;5070546;28;20197;-79
2023/11/01 09:27:59;;;;;;;2.80;1.93;;;;;;;;;;5070301;28;20225;-79
2023/11/01 09:30:26;;;;;;;6.23;2.83;;;;;;;;;;5070351;28;20201;-79
2023/11/01 09:32:53;;;;;;;4.50;2.20;;;;;;;;;;5070243;28;20208;-79
2023/11/01 09:35:22;;;;;;;4.43;2.17;;;;;;;;;;5069899;28;20211;-80
2023/11/01 09:37:49;;;;;;;11.63;5.53;;;;;;;;;;5070114;28;20213;-79
2023/11/01 09:40:16;;;;;;;10.90;6.53;;;;;;;;;;5070031;28;20214;-79
2023/11/01 09:42:43;;;;;;;9.60;4.47;;;;;;;;;;5070217;28;20212;-80
2023/11/01 09:48:32;;;;;;;10.47;4.27;;;;;;;;;;5069809;28;20229;-80
2023/11/01 09:51:37;;;;;;;8.53;2.93;;;;;;;;;;5070112;28;20231;-80
2023/11/01 09:54:28;;;;;;;2.90;2.00;;;;;;;;;;5051297;28;20201;-80
2023/11/01 09:57:15;;;;;;;3.00;1.53;;;;;;;;;;5059850;28;20240;-80
2023/11/01 10:00:02;;;;;;;2.43;2.00;;;;;;;;;;5068048;28;20259;-79
2023/11/01 10:02:35;;;;;;;4.23;2.33;;;;;;;;;;5070080;28;20635;-80
2023/11/01 10:08:15;;;;;;;2.17;1.93;;;;;;;;;;5061280;28;20228;-79
2023/11/01 10:10:45;;;;;;;2.87;1.93;;;;;;;;;;5072310;28;20203;-80
2023/11/01 10:13:11;;;;;;;3.53;2.13;;;;;;;;;;5073632;28;20209;-80
2023/11/01 10:15:39;;;;;;;2.37;1.73;;;;;;;;;;5073667;28;20211;-80
2023/11/01 10:18:06;;;;;;;6.20;2.70;;;;;;;;;;5073196;28;20752;-80
2023/11/01 10:20:33;;;;;;;4.17;1.90;;;;;;;;;;5073556;28;20690;-80
2023/11/01 10:23:00;;;;;;;3.80;2.20;;;;;;;;;;5073310;28;20217;-79
2023/11/01 10:25:27;;;;;;;11.10;5.33;;;;;;;;;;5059823;28;20306;-81
2023/11/01 10:27:55;;;;;;;6.90;4.60;;;;;;;;;;5072972;28;20734;-80
2023/11/01 10:30:22;;;;;;;9.03;5.60;;;;;;;;;;5073505;28;20205;-80
2023/11/01 10:32:56;;;;;;;11.70;6.20;;;;;;;;;;5073341;28;20216;-80
2023/11/01 10:35:23;;;;;;;12.43;5.60;;;;;;;;;;5073042;28;20212;-80
2023/11/01 10:37:57;;;;;;;13.00;5.83;;;;;;;;;;5073151;28;20209;-80
2023/11/01 10:40:27;;;;;;;7.07;5.00;;;;;;;;;;5060033;28;20278;-80
2023/11/01 10:42:58;;;;;;;11.70;5.43;;;;;;;;;;5072941;28;20205;-80
2023/11/01 10:45:25;;;;;;;12.47;5.73;;;;;;;;;;5073521;28;20212;-80
2023/11/01 10:47:52;;;;;;;9.93;5.30;;;;;;;;;;5072958;28;20606;-80
2023/11/01 10:50:19;;;;;;;11.50;5.53;;;;;;;;;;5071421;28;20236;-80
2023/11/01 10:52:48;;;;;;;6.37;5.10;;;;;;;;;;5072970;28;20267;-80
2023/11/01 10:55:17;;;;;;;5.37;4.17;;;;;;;;;;5073193;28;20200;-80
2023/11/01 10:57:45;;;;;;;9.10;5.50;;;;;;;;;;5072499;28;20208;-80
2023/11/01 11:00:17;;;;;;;6.33;4.40;;;;;;;;;;5073150;28;20209;-81
2023/11/01 11:02:49;;;;;;;8.87;4.30;;;;;;;;;;5072831;28;20205;-80
2023/11/01 11:05:18;;;;;;;5.23;4.40;;;;;;;;;;5072609;28;20208;-80
2023/11/01 11:07:48;;;;;;;14.57;4.90;;;;;;;;;;5072311;28;20225;-80
2023/11/01 11:10:26;;;;;;;11.20;5.43;;;;;;;;;;5072896;28;20250;-80
2023/11/01 11:13:24;;;;;;;8.30;4.63;;;;;;;;;;5060125;28;20227;-80
2023/11/01 11:16:01;;;;;;;7.77;5.07;;;;;;;;;;5072521;28;20209;-80
2023/11/01 11:18:51;;;;;;;5.97;4.43;;;;;;;;;;5071594;28;20217;-81
2023/11/01 11:22:01;;;;;;;5.87;4.70;;;;;;;;;;5072372;28;20205;-80
2023/11/01 11:24:52;;;;;;;7.63;4.30;;;;;;;;;;5061978;28;20215;-80
2023/11/01 11:27:50;;;;;;;5.30;4.80;;;;;;;;;;5071796;28;20201;-80
2023/11/01 11:31:08;;;;;;;5.80;5.20;;;;;;;;;;5071863;28;20193;-80
2023/11/01 11:33:36;;;;;;;9.87;5.00;;;;;;;;;;5071827;28;20201;-80
2023/11/01 11:36:24;;;;;;;7.97;3.93;;;;;;;;;;5072504;28;20570;-80
2023/11/01 11:38:55;;;;;;;4.70;2.20;;;;;;;;;;5058155;28;20566;-80
2023/11/01 11:41:22;;;;;;;8.07;2.40;;;;;;;;;;5072083;28;20205;-80
2023/11/01 11:44:08;;;;;;;7.90;1.60;;;;;;;;;;5072480;28;20232;-80
2023/11/01 11:46:39;;;;;;;8.13;5.90;;;;;;;;;;5067119;28;20213;-80
2023/11/01 11:49:07;;;;;;;4.67;2.57;;;;;;;;;;5064323;28;20328;-80
2023/11/01 11:51:35;;;;;;;10.67;2.47;;;;;;;;;;5071598;28;20239;-80
2023/11/01 11:54:14;;;;;;;12.03;2.30;;;;;;;;;;5071661;28;20284;-80
2023/11/01 11:56:41;;;;;;;6.63;2.20;;;;;;;;;;5058998;28;20201;-81
2023/11/01 11:59:09;;;;;;;2.80;2.37;;;;;;;;;;5071664;28;20592;-80
2023/11/01 12:01:36;;;;;;;2.90;2.20;;;;;;;;;;5071444;28;20296;-80
2023/11/01 12:04:06;;;;;;;4.23;2.60;;;;;;;;;;5071554;28;20211;-80
2023/11/01 12:06:41;;;;;;;5.50;2.93;;;;;;;;;;5071280;28;20212;-80
2023/11/01 12:09:17;;;;;;;5.43;2.23;;;;;;;;;;5070989;28;21508;-80
2023/11/01 12:11:45;;;;;;;4.83;1.83;;;;;;;;;;5071564;28;20642;-81
2023/11/01 12:14:17;;;;;;;4.33;2.43;;;;;;;;;;5071207;28;20217;-81
2023/11/01 12:16:44;;;;;;;3.20;2.40;;;;;;;;;;5071224;28;20212;-80
2023/11/01 12:19:16;;;;;;;8.17;3.13;;;;;;;;;;5071230;28;20275;-80
2023/11/01 12:21:45;;;;;;;7.60;3.17;;;;;;;;;;5071105;28;20603;-81
2023/11/01 12:24:14;;;;;;;4.63;2.43;;;;;;;;;;5071082;28;20220;-81
2023/11/01 12:26:59;;;;;;;7.30;2.80;;;;;;;;;;5070745;28;20232;-81
2023/11/01 12:29:33;;;;;;;7.47;2.50;;;;;;;;;;5070377;28;20272;-80
2023/11/01 12:32:01;;;;;;;4.30;2.43;;;;;;;;;;5070364;28;20212;-80
2023/11/01 12:34:29;;;;;;;6.53;3.37;;;;;;;;;;5070998;28;20208;-81
2023/11/01 12:37:01;;;;;;;4.83;2.57;;;;;;;;;;5071188;28;20201;-81
2023/11/01 12:39:27;;;;;;;6.27;3.00;;;;;;;;;;5070839;28;20197;-81
2023/11/01 12:41:54;;;;;;;3.00;2.70;;;;;;;;;;5070750;28;20586;-80
2023/11/01 12:44:23;;;;;;;3.43;2.27;;;;;;;;;;5070555;28;20695;-80
2023/11/01 12:46:50;;;;;;;4.60;2.60;;;;;;;;;;5057853;28;20644;-80
2023/11/01 12:49:16;;;;;;;3.73;2.43;;;;;;;;;;5070978;28;20225;-80
2023/11/01 12:51:44;;;;;;;7.63;2.93;;;;;;;;;;5057230;28;20228;-80
2023/11/01 12:54:11;;;;;;;3.47;2.73;;;;;;;;;;5070522;28;20215;-81
2023/11/01 12:56:38;;;;;;;6.07;3.50;;;;;;;;;;5057585;28;20193;-80
2023/11/01 12:59:05;;;;;;;5.13;2.67;;;;;;;;;;5070858;28;20782;-80
2023/11/01 13:01:33;;;;;;;6.20;2.63;;;;;;;;;;5070900;28;20223;-80
2023/11/01 13:04:01;;;;;;;3.07;2.60;;;;;;;;;;5070492;28;20237;-80
2023/11/01 13:06:28;;;;;;;3.13;2.33;;;;;;;;;;5070401;28;20239;-81
2023/11/01 13:08:55;;;;;;;5.77;2.40;;;;;;;;;;5070755;28;20263;-80
2023/11/01 13:11:23;;;;;;;3.50;2.43;;;;;;;;;;5070720;28;20684;-80
2023/11/01 13:13:50;;;;;;;8.53;2.67;;;;;;;;;;5070182;28;20219;-80
2023/11/01 13:16:17;;;;;;;5.63;3.10;;;;;;;;;;5070722;28;20193;-80
2023/11/01 13:18:46;;;;;;;5.37;2.67;;;;;;;;;;5070128;28;20201;-81
2023/11/01 13:21:12;;;;;;;7.00;3.27;;;;;;;;;;5070558;28;20200;-81
2023/11/01 13:23:39;;;;;;;5.57;3.37;;;;;;;;;;5069846;28;20211;-81
2023/11/01 13:26:08;;;;;;;4.10;3.70;;;;;;;;;;5070759;28;20196;-80
2023/11/01 13:28:35;;;;;;;6.43;3.07;;;;;;;;;;5070460;28;20225;-80
2023/11/01 13:31:02;;;;;;;5.13;3.30;;;;;;;;;;5070433;28;20215;-80
2023/11/01 13:33:29;;;;;;;4.43;3.07;;;;;;;;;;5069483;28;20201;-81
2023/11/01 13:36:00;;;;;;;4.83;3.17;;;;;;;;;;5070848;28;20204;-80
2023/11/01 13:38:27;;;;;;;7.13;2.53;;;;;;;;;;5070199;28;20201;-81
2023/11/01 13:40:54;;;;;;;10.67;6.03;;;;;;;;;;5072030;28;20603;-80
2023/11/01 13:43:20;;;;;;;3.93;2.67;;;;;;;;;;5074139;28;20633;-80
2023/11/01 13:45:48;;;;;;;5.20;2.80;;;;;;;;;;5074698;28;20205;-81
2023/11/01 13:48:15;;;;;;;8.63;5.63;;;;;;;;;;5073814;28;20655;-81
2023/11/01 13:50:42;;;;;;;11.33;5.63;;;;;;;;;;5074237;28;20236;-80
2023/11/01 13:53:10;;;;;;;8.70;6.13;;;;;;;;;;5073498;28;20239;-81
2023/11/01 13:55:38;;;;;;;7.50;4.50;;;;;;;;;;5074039;28;20594;-81
2023/11/01 13:58:05;;;;;;;11.13;4.27;;;;;;;;;;5073556;28;20216;-81
2023/11/01 14:00:32;;;;;;;4.13;2.63;;;;;;;;;;5074287;28;20208;-81
2023/11/01 14:03:00;;;;;;;7.57;3.00;;;;;;;;;;5073566;28;20205;-80
2023/11/01 14:05:27;;;;;;;7.03;2.50;;;;;;;;;;5074179;28;20296;-81
2023/11/01 14:07:54;;;;;;;4.50;2.27;;;;;;;;;;5073566;28;20239;-81
2023/11/01 14:10:23;;;;;;;2.57;2.37;;;;;;;;;;5073615;28;20264;-81
2023/11/01 14:12:50;;;;;;;5.87;2.10;;;;;;;;;;5073352;28;20193;-81
2023/11/01 14:15:18;;;;;;;3.63;2.03;;;;;;;;;;5074074;28;20205;-82
2023/11/01 14:17:45;;;;;;;5.27;2.30;;;;;;;;;;5073217;28;20741;-80
2023/11/01 14:20:12;;;;;;;2.40;2.20;;;;;;;;;;5073731;28;20205;-81
2023/11/01 14:22:41;;;;;;;6.30;2.50;;;;;;;;;;5073512;28;20205;-80
2023/11/01 14:25:10;;;;;;;2.80;2.60;;;;;;;;;;5073329;28;20749;-81
2023/11/01 14:27:39;;;;;;;3.03;2.40;;;;;;;;;;5073388;28;20576;-81
2023/11/01 14:30:08;;;;;;;3.10;2.57;;;;;;;;;;5073577;28;20232;-80
2023/11/01 14:32:35;;;;;;;4.77;3.23;;;;;;;;;;5073516;28;20201;-81
2023/11/01 14:35:02;;;;;;;5.77;3.10;;;;;;;;;;5072695;28;20288;-80
2023/11/01 14:37:30;;;;;;;6.70;3.50;;;;;;;;;;5073602;28;20206;-81
2023/11/01 14:39:56;;;;;;;5.63;3.20;;;;;;;;;;5073035;28;20287;-81
2023/11/01 14:42:24;;;;;;;3.00;2.70;;;;;;;;;;5073177;28;20228;-81
2023/11/01 14:44:52;;;;;;;5.07;2.40;;;;;;;;;;5072890;28;20229;-81
2023/11/01 14:47:19;;;;;;;6.17;3.00;;;;;;;;;;5072530;28;20204;-81